CGZMA CYKF-CYTZ
Flight info
| Callsign | CGZMA |
|---|---|
| Flight time | 0h 25m |
| Altitude | 7000 |
| Route | OLAMO |
| Aircraft | C208/L-SDFGR/C |
Departure
| Time | 2026-05-08 00:00 |
|---|---|
| Airport | Region of Waterloo International Airport (CYKF) |
Arrival
| Time | 2026-05-08 00:25 |
|---|---|
| Airport | Billy Bishop Toronto City Airport (CYTZ) |
| Time | Latitude | Longitude | Altitude | Speed | Heading |
|---|---|---|---|---|---|
| 2026-05-07 23:46 | 43.45478 | -80.38291 | 1034 ft | 0 kts | 213° |
| 2026-05-07 23:56 | 43.45476 | -80.38295 | 1034 ft | 1 kts | 240° |
| 2026-05-07 23:56 | 43.45486 | -80.38316 | 1034 ft | 5 kts | 332° |
| 2026-05-07 23:56 | 43.45538 | -80.38329 | 1034 ft | 10 kts | 357° |
| 2026-05-07 23:56 | 43.45610 | -80.38372 | 1034 ft | 13 kts | 320° |
| 2026-05-07 23:57 | 43.45674 | -80.38465 | 1034 ft | 14 kts | 305° |
| 2026-05-07 23:57 | 43.45733 | -80.38571 | 1034 ft | 10 kts | 310° |
| 2026-05-07 23:57 | 43.45780 | -80.38521 | 1034 ft | 13 kts | 66° |
| 2026-05-07 23:57 | 43.45827 | -80.38397 | 1035 ft | 16 kts | 71° |
| 2026-05-07 23:58 | 43.45878 | -80.38240 | 1034 ft | 19 kts | 64° |
| 2026-05-07 23:58 | 43.45937 | -80.38068 | 1034 ft | 21 kts | 66° |
| 2026-05-07 23:58 | 43.46000 | -80.37883 | 1034 ft | 22 kts | 64° |
| 2026-05-07 23:58 | 43.46069 | -80.37718 | 1035 ft | 17 kts | 28° |
| 2026-05-07 23:59 | 43.46138 | -80.37687 | 1035 ft | 7 kts | 9° |
| 2026-05-07 23:59 | 43.46199 | -80.37713 | 1034 ft | 11 kts | 335° |
| 2026-05-07 23:59 | 43.46191 | -80.37807 | 1035 ft | 38 kts | 244° |
| 2026-05-07 23:59 | 43.45938 | -80.38526 | 1162 ft | 108 kts | 245° |
| 2026-05-08 00:00 | 43.45574 | -80.39462 | 1535 ft | 113 kts | 243° |
| 2026-05-08 00:00 | 43.44980 | -80.40212 | 1804 ft | 128 kts | 205° |
| 2026-05-08 00:00 | 43.44051 | -80.40022 | 2049 ft | 143 kts | 151° |
| 2026-05-08 00:00 | 43.43457 | -80.38943 | 2399 ft | 146 kts | 119° |
| 2026-05-08 00:01 | 43.42991 | -80.37664 | 2404 ft | 152 kts | 118° |
| 2026-05-08 00:01 | 43.42521 | -80.36350 | 2395 ft | 154 kts | 118° |
| 2026-05-08 00:01 | 43.42073 | -80.35025 | 2407 ft | 151 kts | 116° |
| 2026-05-08 00:01 | 43.41656 | -80.33740 | 2407 ft | 144 kts | 116° |
| 2026-05-08 00:02 | 43.41251 | -80.32505 | 2410 ft | 139 kts | 117° |
| 2026-05-08 00:02 | 43.40853 | -80.31301 | 2409 ft | 137 kts | 117° |
| 2026-05-08 00:02 | 43.40460 | -80.30110 | 2414 ft | 136 kts | 116° |
| 2026-05-08 00:02 | 43.40076 | -80.28940 | 2502 ft | 132 kts | 116° |
| 2026-05-08 00:03 | 43.39703 | -80.27802 | 2715 ft | 130 kts | 117° |
| 2026-05-08 00:03 | 43.39327 | -80.26666 | 2918 ft | 131 kts | 117° |
| 2026-05-08 00:03 | 43.38955 | -80.25537 | 3113 ft | 131 kts | 116° |
| 2026-05-08 00:03 | 43.38577 | -80.24391 | 3309 ft | 132 kts | 117° |
| 2026-05-08 00:04 | 43.38197 | -80.23249 | 3563 ft | 127 kts | 117° |
| 2026-05-08 00:04 | 43.37834 | -80.22148 | 3820 ft | 125 kts | 116° |
| 2026-05-08 00:04 | 43.37474 | -80.21057 | 4041 ft | 126 kts | 116° |
| 2026-05-08 00:04 | 43.37117 | -80.19977 | 4264 ft | 126 kts | 117° |
| 2026-05-08 00:05 | 43.36751 | -80.18879 | 4486 ft | 127 kts | 117° |
| 2026-05-08 00:05 | 43.36354 | -80.17692 | 4496 ft | 140 kts | 116° |
| 2026-05-08 00:05 | 43.35951 | -80.16480 | 4498 ft | 139 kts | 116° |
| 2026-05-08 00:05 | 43.35559 | -80.15304 | 4499 ft | 136 kts | 116° |
| 2026-05-08 00:06 | 43.35167 | -80.14126 | 4497 ft | 135 kts | 116° |
| 2026-05-08 00:06 | 43.34796 | -80.12950 | 4488 ft | 134 kts | 104° |
| 2026-05-08 00:06 | 43.34755 | -80.11692 | 4507 ft | 131 kts | 90° |
| 2026-05-08 00:06 | 43.34738 | -80.10443 | 4517 ft | 130 kts | 90° |
| 2026-05-08 00:07 | 43.34719 | -80.09204 | 4518 ft | 130 kts | 90° |
| 2026-05-08 00:07 | 43.34698 | -80.07963 | 4521 ft | 131 kts | 90° |
| 2026-05-08 00:07 | 43.34682 | -80.06676 | 4525 ft | 138 kts | 89° |
| 2026-05-08 00:07 | 43.34664 | -80.05322 | 4531 ft | 147 kts | 90° |
| 2026-05-08 00:08 | 43.34646 | -80.03867 | 4530 ft | 156 kts | 90° |
| 2026-05-08 00:08 | 43.34630 | -80.02348 | 4530 ft | 161 kts | 90° |
| 2026-05-08 00:08 | 43.34615 | -80.00794 | 4529 ft | 164 kts | 90° |
| 2026-05-08 00:08 | 43.34601 | -79.99225 | 4528 ft | 165 kts | 90° |
| 2026-05-08 00:09 | 43.34582 | -79.97645 | 4529 ft | 165 kts | 90° |
| 2026-05-08 00:09 | 43.34567 | -79.96066 | 4529 ft | 166 kts | 90° |
| 2026-05-08 00:09 | 43.34553 | -79.94479 | 4529 ft | 166 kts | 90° |
| 2026-05-08 00:09 | 43.34539 | -79.92899 | 4530 ft | 166 kts | 90° |
| 2026-05-08 00:10 | 43.34526 | -79.91317 | 4528 ft | 166 kts | 90° |
| 2026-05-08 00:10 | 43.34512 | -79.89734 | 4528 ft | 165 kts | 90° |
| 2026-05-08 00:10 | 43.34500 | -79.88160 | 4529 ft | 165 kts | 90° |
| 2026-05-08 00:10 | 43.34487 | -79.86577 | 4529 ft | 165 kts | 90° |
| 2026-05-08 00:11 | 43.34475 | -79.85016 | 4527 ft | 165 kts | 90° |
| 2026-05-08 00:11 | 43.34462 | -79.83446 | 4526 ft | 165 kts | 90° |
| 2026-05-08 00:11 | 43.34450 | -79.81873 | 4528 ft | 165 kts | 90° |
| 2026-05-08 00:11 | 43.34436 | -79.80294 | 4474 ft | 168 kts | 90° |
| 2026-05-08 00:12 | 43.34425 | -79.78661 | 4332 ft | 171 kts | 90° |
| 2026-05-08 00:12 | 43.34409 | -79.77056 | 4197 ft | 164 kts | 90° |
| 2026-05-08 00:12 | 43.34395 | -79.75511 | 4065 ft | 160 kts | 90° |
| 2026-05-08 00:12 | 43.34400 | -79.73993 | 3931 ft | 158 kts | 86° |
| 2026-05-08 00:13 | 43.34570 | -79.72522 | 3780 ft | 155 kts | 65° |
| 2026-05-08 00:13 | 43.35205 | -79.71365 | 3643 ft | 150 kts | 41° |
| 2026-05-08 00:13 | 43.36010 | -79.70474 | 3523 ft | 147 kts | 32° |
| 2026-05-08 00:13 | 43.36823 | -79.69693 | 3524 ft | 139 kts | 29° |
| 2026-05-08 00:14 | 43.37622 | -79.68968 | 3522 ft | 136 kts | 29° |
| 2026-05-08 00:14 | 43.38383 | -79.68208 | 3521 ft | 134 kts | 32° |
| 2026-05-08 00:14 | 43.39119 | -79.67459 | 3521 ft | 133 kts | 31° |
| 2026-05-08 00:14 | 43.39869 | -79.66701 | 3474 ft | 136 kts | 32° |
| 2026-05-08 00:15 | 43.40666 | -79.65986 | 3391 ft | 138 kts | 27° |
| 2026-05-08 00:15 | 43.41495 | -79.65311 | 3314 ft | 139 kts | 25° |
| 2026-05-08 00:15 | 43.42341 | -79.64665 | 3236 ft | 139 kts | 24° |
| 2026-05-08 00:15 | 43.43193 | -79.64030 | 3159 ft | 139 kts | 23° |
| 2026-05-08 00:16 | 43.44052 | -79.63391 | 3053 ft | 141 kts | 24° |
| 2026-05-08 00:16 | 43.44917 | -79.62750 | 2953 ft | 142 kts | 24° |
| 2026-05-08 00:16 | 43.45788 | -79.62111 | 2848 ft | 142 kts | 24° |
| 2026-05-08 00:16 | 43.46658 | -79.61472 | 2745 ft | 142 kts | 24° |
| 2026-05-08 00:17 | 43.47534 | -79.60833 | 2637 ft | 142 kts | 24° |
| 2026-05-08 00:17 | 43.48410 | -79.60192 | 2538 ft | 142 kts | 24° |
| 2026-05-08 00:17 | 43.49251 | -79.59575 | 2429 ft | 130 kts | 24° |
| 2026-05-08 00:17 | 43.50014 | -79.59003 | 2316 ft | 120 kts | 24° |
| 2026-05-08 00:18 | 43.50721 | -79.58465 | 2204 ft | 113 kts | 24° |
| 2026-05-08 00:18 | 43.51393 | -79.57954 | 2062 ft | 111 kts | 23° |
| 2026-05-08 00:18 | 43.52072 | -79.57443 | 1895 ft | 111 kts | 24° |
| 2026-05-08 00:18 | 43.52677 | -79.56976 | 1689 ft | 91 kts | 25° |
| 2026-05-08 00:19 | 43.53231 | -79.56553 | 1462 ft | 94 kts | 25° |
| 2026-05-08 00:19 | 43.53832 | -79.56115 | 1306 ft | 102 kts | 25° |
| 2026-05-08 00:19 | 43.54463 | -79.55701 | 1247 ft | 100 kts | 21° |
| 2026-05-08 00:19 | 43.55083 | -79.55290 | 1171 ft | 99 kts | 26° |
| 2026-05-08 00:20 | 43.55684 | -79.54841 | 1073 ft | 101 kts | 30° |
| 2026-05-08 00:20 | 43.56295 | -79.54405 | 1020 ft | 98 kts | 27° |
| 2026-05-08 00:20 | 43.56922 | -79.54013 | 926 ft | 99 kts | 25° |
| 2026-05-08 00:20 | 43.57554 | -79.53658 | 859 ft | 98 kts | 23° |
| 2026-05-08 00:21 | 43.58118 | -79.53212 | 862 ft | 88 kts | 48° |
| 2026-05-08 00:21 | 43.58547 | -79.52596 | 899 ft | 94 kts | 40° |
| 2026-05-08 00:21 | 43.59074 | -79.52017 | 926 ft | 99 kts | 40° |
| 2026-05-08 00:21 | 43.59600 | -79.51379 | 956 ft | 102 kts | 45° |
| 2026-05-08 00:22 | 43.60015 | -79.50603 | 943 ft | 98 kts | 56° |
| 2026-05-08 00:22 | 43.60411 | -79.49894 | 819 ft | 90 kts | 52° |
| 2026-05-08 00:22 | 43.60880 | -79.49112 | 678 ft | 122 kts | 53° |
| 2026-05-08 00:22 | 43.61382 | -79.48248 | 681 ft | 99 kts | 56° |
| 2026-05-08 00:23 | 43.61678 | -79.47480 | 637 ft | 91 kts | 75° |
| 2026-05-08 00:23 | 43.61775 | -79.46586 | 696 ft | 98 kts | 87° |
| 2026-05-08 00:23 | 43.61752 | -79.45618 | 773 ft | 104 kts | 95° |
| 2026-05-08 00:23 | 43.61731 | -79.44582 | 819 ft | 109 kts | 83° |
| 2026-05-08 00:24 | 43.61950 | -79.43588 | 842 ft | 111 kts | 69° |
| 2026-05-08 00:24 | 43.62209 | -79.42620 | 720 ft | 97 kts | 75° |
| 2026-05-08 00:24 | 43.62393 | -79.41780 | 588 ft | 81 kts | 75° |
| 2026-05-08 00:24 | 43.62559 | -79.41082 | 430 ft | 74 kts | 74° |
| 2026-05-08 00:25 | 43.62725 | -79.40425 | 300 ft | 71 kts | 75° |
| 2026-05-08 00:25 | 43.62825 | -79.40017 | 257 ft | 64 kts | 76° |
| 2026-05-08 00:25 | 43.62993 | -79.39329 | 264 ft | 49 kts | 74° |
| 2026-05-08 00:25 | 43.63062 | -79.39050 | 261 ft | 24 kts | 69° |
| 2026-05-08 00:26 | 43.63119 | -79.38961 | 259 ft | 19 kts | 340° |
| 2026-05-08 00:26 | 43.63113 | -79.39106 | 262 ft | 7 kts | 257° |